sensor_id;sensor_type;location;lat;lon;timestamp;temperature;humidity
47791;DHT22;33547;49.044;1.156;2023-01-24T00:01:18;2.60;99.90
47791;DHT22;33547;49.044;1.156;2023-01-24T00:03:44;2.60;99.90
47791;DHT22;33547;49.044;1.156;2023-01-24T00:06:10;2.60;99.90
47791;DHT22;33547;49.044;1.156;2023-01-24T00:08:35;2.60;99.90
47791;DHT22;33547;49.044;1.156;2023-01-24T00:11:04;2.60;99.90
47791;DHT22;33547;49.044;1.156;2023-01-24T00:13:31;2.60;99.90
47791;DHT22;33547;49.044;1.156;2023-01-24T00:16:10;2.50;99.90
47791;DHT22;33547;49.044;1.156;2023-01-24T00:18:37;2.50;99.90
47791;DHT22;33547;49.044;1.156;2023-01-24T00:21:11;2.50;99.90
47791;DHT22;33547;49.044;1.156;2023-01-24T00:23:44;2.60;99.90
47791;DHT22;33547;49.044;1.156;2023-01-24T00:26:12;2.60;99.90
47791;DHT22;33547;49.044;1.156;2023-01-24T00:28:38;2.60;99.90
47791;DHT22;33547;49.044;1.156;2023-01-24T00:31:04;2.60;99.90
47791;DHT22;33547;49.044;1.156;2023-01-24T00:33:30;2.60;99.90
47791;DHT22;33547;49.044;1.156;2023-01-24T00:35:56;2.60;99.90
47791;DHT22;33547;49.044;1.156;2023-01-24T00:38:22;2.60;99.90
47791;DHT22;33547;49.044;1.156;2023-01-24T00:40:48;2.60;99.90
47791;DHT22;33547;49.044;1.156;2023-01-24T00:43:14;2.60;99.90
47791;DHT22;33547;49.044;1.156;2023-01-24T00:45:40;2.60;99.90
47791;DHT22;33547;49.044;1.156;2023-01-24T00:48:07;2.60;99.90
47791;DHT22;33547;49.044;1.156;2023-01-24T00:50:33;2.60;99.90
47791;DHT22;33547;49.044;1.156;2023-01-24T00:52:59;2.60;99.90
47791;DHT22;33547;49.044;1.156;2023-01-24T00:55:25;2.70;99.90
47791;DHT22;33547;49.044;1.156;2023-01-24T00:57:51;2.60;99.90
47791;DHT22;33547;49.044;1.156;2023-01-24T01:00:17;2.60;99.90
47791;DHT22;33547;49.044;1.156;2023-01-24T01:02:43;2.60;99.90
47791;DHT22;33547;49.044;1.156;2023-01-24T01:05:08;2.70;99.90
47791;DHT22;33547;49.044;1.156;2023-01-24T01:07:34;2.60;99.90
47791;DHT22;33547;49.044;1.156;2023-01-24T01:10:00;2.60;99.90
47791;DHT22;33547;49.044;1.156;2023-01-24T01:12:26;2.50;99.90
47791;DHT22;33547;49.044;1.156;2023-01-24T01:14:51;2.50;99.90
47791;DHT22;33547;49.044;1.156;2023-01-24T01:17:17;2.60;99.90
47791;DHT22;33547;49.044;1.156;2023-01-24T01:19:43;2.50;99.90
47791;DHT22;33547;49.044;1.156;2023-01-24T01:22:09;2.50;99.90
47791;DHT22;33547;49.044;1.156;2023-01-24T01:24:35;2.50;99.90
47791;DHT22;33547;49.044;1.156;2023-01-24T01:27:00;2.50;99.90
47791;DHT22;33547;49.044;1.156;2023-01-24T01:29:26;2.60;99.90
47791;DHT22;33547;49.044;1.156;2023-01-24T01:31:52;2.50;99.90
47791;DHT22;33547;49.044;1.156;2023-01-24T01:34:17;2.50;99.90
47791;DHT22;33547;49.044;1.156;2023-01-24T01:36:43;2.50;99.90
47791;DHT22;33547;49.044;1.156;2023-01-24T01:39:09;2.50;99.90
47791;DHT22;33547;49.044;1.156;2023-01-24T01:41:35;2.50;99.90
47791;DHT22;33547;49.044;1.156;2023-01-24T01:44:24;2.50;99.90
47791;DHT22;33547;49.044;1.156;2023-01-24T01:52:24;2.60;99.90
47791;DHT22;33547;49.044;1.156;2023-01-24T01:54:50;2.60;99.90
47791;DHT22;33547;49.044;1.156;2023-01-24T01:57:25;2.60;99.90
47791;DHT22;33547;49.044;1.156;2023-01-24T01:59:59;2.60;99.90
47791;DHT22;33547;49.044;1.156;2023-01-24T02:02:27;2.60;99.90
47791;DHT22;33547;49.044;1.156;2023-01-24T02:05:00;2.50;99.90
47791;DHT22;33547;49.044;1.156;2023-01-24T02:07:51;2.60;99.90
47791;DHT22;33547;49.044;1.156;2023-01-24T02:10:20;2.60;99.90
47791;DHT22;33547;49.044;1.156;2023-01-24T02:12:49;2.50;99.90
47791;DHT22;33547;49.044;1.156;2023-01-24T02:15:20;2.50;99.90
47791;DHT22;33547;49.044;1.156;2023-01-24T02:18:06;2.50;99.90
47791;DHT22;33547;49.044;1.156;2023-01-24T02:20:39;2.40;99.90
47791;DHT22;33547;49.044;1.156;2023-01-24T02:28:34;2.30;99.90
47791;DHT22;33547;49.044;1.156;2023-01-24T02:31:01;2.30;99.90
47791;DHT22;33547;49.044;1.156;2023-01-24T02:33:27;2.30;99.90
47791;DHT22;33547;49.044;1.156;2023-01-24T02:36:26;2.20;99.90
47791;DHT22;33547;49.044;1.156;2023-01-24T02:39:02;2.20;99.90
47791;DHT22;33547;49.044;1.156;2023-01-24T02:41:51;2.20;99.90
47791;DHT22;33547;49.044;1.156;2023-01-24T02:44:28;2.10;99.90
47791;DHT22;33547;49.044;1.156;2023-01-24T02:46:56;2.20;99.90
47791;DHT22;33547;49.044;1.156;2023-01-24T02:49:22;2.10;99.90
47791;DHT22;33547;49.044;1.156;2023-01-24T02:51:47;2.10;99.90
47791;DHT22;33547;49.044;1.156;2023-01-24T02:54:32;2.10;99.90
47791;DHT22;33547;49.044;1.156;2023-01-24T02:56:57;2.10;99.90
47791;DHT22;33547;49.044;1.156;2023-01-24T02:59:41;2.10;99.90
47791;DHT22;33547;49.044;1.156;2023-01-24T03:02:07;2.20;99.90
47791;DHT22;33547;49.044;1.156;2023-01-24T03:04:33;2.20;99.90
47791;DHT22;33547;49.044;1.156;2023-01-24T03:06:58;2.20;99.90
47791;DHT22;33547;49.044;1.156;2023-01-24T03:09:24;2.20;99.90
47791;DHT22;33547;49.044;1.156;2023-01-24T03:12:00;2.10;99.90
47791;DHT22;33547;49.044;1.156;2023-01-24T03:14:45;2.20;99.90
47791;DHT22;33547;49.044;1.156;2023-01-24T03:17:29;2.10;99.90
47791;DHT22;33547;49.044;1.156;2023-01-24T03:20:14;2.10;99.90
47791;DHT22;33547;49.044;1.156;2023-01-24T03:22:58;2.10;99.90
47791;DHT22;33547;49.044;1.156;2023-01-24T03:25:42;2.00;99.90
47791;DHT22;33547;49.044;1.156;2023-01-24T03:28:26;2.00;99.90
47791;DHT22;33547;49.044;1.156;2023-01-24T03:31:10;2.10;99.90
47791;DHT22;33547;49.044;1.156;2023-01-24T03:33:54;2.00;99.90
47791;DHT22;33547;49.044;1.156;2023-01-24T03:36:38;2.10;99.90
47791;DHT22;33547;49.044;1.156;2023-01-24T03:39:04;2.00;99.90
47791;DHT22;33547;49.044;1.156;2023-01-24T03:41:49;2.00;99.90
47791;DHT22;33547;49.044;1.156;2023-01-24T03:44:14;2.00;99.90
47791;DHT22;33547;49.044;1.156;2023-01-24T03:46:40;2.00;99.90
47791;DHT22;33547;49.044;1.156;2023-01-24T03:49:07;2.00;99.90
47791;DHT22;33547;49.044;1.156;2023-01-24T03:51:32;1.90;99.90
47791;DHT22;33547;49.044;1.156;2023-01-24T03:54:17;1.90;99.90
47791;DHT22;33547;49.044;1.156;2023-01-24T03:56:43;2.00;99.90
47791;DHT22;33547;49.044;1.156;2023-01-24T03:59:08;2.00;99.90
47791;DHT22;33547;49.044;1.156;2023-01-24T04:01:34;2.00;99.90
47791;DHT22;33547;49.044;1.156;2023-01-24T04:04:00;2.00;99.90
47791;DHT22;33547;49.044;1.156;2023-01-24T04:06:25;1.90;99.90
47791;DHT22;33547;49.044;1.156;2023-01-24T04:08:51;1.90;99.90
47791;DHT22;33547;49.044;1.156;2023-01-24T04:11:17;1.90;99.90
47791;DHT22;33547;49.044;1.156;2023-01-24T04:13:42;2.00;99.90
47791;DHT22;33547;49.044;1.156;2023-01-24T04:16:09;2.00;99.90
47791;DHT22;33547;49.044;1.156;2023-01-24T04:18:35;2.00;99.90
47791;DHT22;33547;49.044;1.156;2023-01-24T04:21:04;2.00;99.90
47791;DHT22;33547;49.044;1.156;2023-01-24T04:23:31;2.10;99.90
47791;DHT22;33547;49.044;1.156;2023-01-24T04:25:57;2.00;99.90
47791;DHT22;33547;49.044;1.156;2023-01-24T04:28:25;2.00;99.90
47791;DHT22;33547;49.044;1.156;2023-01-24T04:31:01;2.00;99.90
47791;DHT22;33547;49.044;1.156;2023-01-24T04:33:27;2.00;99.90
47791;DHT22;33547;49.044;1.156;2023-01-24T04:35:59;2.10;99.90
47791;DHT22;33547;49.044;1.156;2023-01-24T04:38:25;2.10;99.90
47791;DHT22;33547;49.044;1.156;2023-01-24T04:40:59;2.00;99.90
47791;DHT22;33547;49.044;1.156;2023-01-24T04:43:25;2.00;99.90
47791;DHT22;33547;49.044;1.156;2023-01-24T04:45:55;1.90;99.90
47791;DHT22;33547;49.044;1.156;2023-01-24T04:48:20;1.80;99.90
47791;DHT22;33547;49.044;1.156;2023-01-24T04:50:46;1.80;99.90
47791;DHT22;33547;49.044;1.156;2023-01-24T04:53:12;1.80;99.90
47791;DHT22;33547;49.044;1.156;2023-01-24T04:55:37;1.80;99.90
47791;DHT22;33547;49.044;1.156;2023-01-24T04:58:03;1.80;99.90
47791;DHT22;33547;49.044;1.156;2023-01-24T05:00:28;1.80;99.90
47791;DHT22;33547;49.044;1.156;2023-01-24T05:02:54;1.80;99.90
47791;DHT22;33547;49.044;1.156;2023-01-24T05:05:20;1.80;99.90
47791;DHT22;33547;49.044;1.156;2023-01-24T05:07:45;1.80;99.90
47791;DHT22;33547;49.044;1.156;2023-01-24T05:10:11;1.80;99.90
47791;DHT22;33547;49.044;1.156;2023-01-24T05:12:37;1.90;99.90
47791;DHT22;33547;49.044;1.156;2023-01-24T05:15:03;1.90;99.90
47791;DHT22;33547;49.044;1.156;2023-01-24T05:17:28;1.80;99.90
47791;DHT22;33547;49.044;1.156;2023-01-24T05:19:54;1.90;99.90
47791;DHT22;33547;49.044;1.156;2023-01-24T05:22:20;2.00;99.90
47791;DHT22;33547;49.044;1.156;2023-01-24T05:24:45;1.90;99.90
47791;DHT22;33547;49.044;1.156;2023-01-24T05:27:11;1.90;99.90
47791;DHT22;33547;49.044;1.156;2023-01-24T05:29:37;1.90;99.90
47791;DHT22;33547;49.044;1.156;2023-01-24T05:32:03;1.90;99.90
47791;DHT22;33547;49.044;1.156;2023-01-24T05:34:28;1.90;99.90
47791;DHT22;33547;49.044;1.156;2023-01-24T05:36:54;1.90;99.90
47791;DHT22;33547;49.044;1.156;2023-01-24T05:39:20;1.90;99.90
47791;DHT22;33547;49.044;1.156;2023-01-24T05:41:45;1.90;99.90
47791;DHT22;33547;49.044;1.156;2023-01-24T05:44:11;1.90;99.90
47791;DHT22;33547;49.044;1.156;2023-01-24T05:46:37;1.90;99.90
47791;DHT22;33547;49.044;1.156;2023-01-24T05:49:02;1.90;99.90
47791;DHT22;33547;49.044;1.156;2023-01-24T05:51:28;1.80;99.90
47791;DHT22;33547;49.044;1.156;2023-01-24T05:53:54;1.80;99.90
47791;DHT22;33547;49.044;1.156;2023-01-24T05:56:20;1.80;99.90
47791;DHT22;33547;49.044;1.156;2023-01-24T05:58:47;1.90;99.90
47791;DHT22;33547;49.044;1.156;2023-01-24T06:01:22;2.00;99.90
47791;DHT22;33547;49.044;1.156;2023-01-24T06:03:51;1.90;99.90
47791;DHT22;33547;49.044;1.156;2023-01-24T06:06:20;1.90;99.90
47791;DHT22;33547;49.044;1.156;2023-01-24T06:08:46;1.80;99.90
47791;DHT22;33547;49.044;1.156;2023-01-24T06:11:20;1.80;99.90
47791;DHT22;33547;49.044;1.156;2023-01-24T06:13:46;1.80;99.90
47791;DHT22;33547;49.044;1.156;2023-01-24T06:16:14;1.80;99.90
47791;DHT22;33547;49.044;1.156;2023-01-24T06:18:41;1.70;99.90
47791;DHT22;33547;49.044;1.156;2023-01-24T06:23:51;1.70;99.90
47791;DHT22;33547;49.044;1.156;2023-01-24T06:26:17;1.70;99.90
47791;DHT22;33547;49.044;1.156;2023-01-24T06:28:43;1.70;99.90
47791;DHT22;33547;49.044;1.156;2023-01-24T06:34:52;1.80;99.90
47791;DHT22;33547;49.044;1.156;2023-01-24T06:39:26;1.70;99.90
47791;DHT22;33547;49.044;1.156;2023-01-24T06:41:52;1.60;99.90
47791;DHT22;33547;49.044;1.156;2023-01-24T06:44:18;1.70;99.90
47791;DHT22;33547;49.044;1.156;2023-01-24T06:46:44;1.60;99.90
47791;DHT22;33547;49.044;1.156;2023-01-24T06:49:11;1.60;99.90
47791;DHT22;33547;49.044;1.156;2023-01-24T06:51:37;1.60;99.90
47791;DHT22;33547;49.044;1.156;2023-01-24T06:54:02;1.60;99.90
47791;DHT22;33547;49.044;1.156;2023-01-24T06:56:28;1.60;99.90
47791;DHT22;33547;49.044;1.156;2023-01-24T06:58:54;1.60;99.90
47791;DHT22;33547;49.044;1.156;2023-01-24T07:01:20;1.60;99.90
47791;DHT22;33547;49.044;1.156;2023-01-24T07:03:45;1.70;99.90
47791;DHT22;33547;49.044;1.156;2023-01-24T07:06:11;1.70;99.90
47791;DHT22;33547;49.044;1.156;2023-01-24T07:08:37;1.80;99.90
47791;DHT22;33547;49.044;1.156;2023-01-24T07:11:02;1.80;99.90
47791;DHT22;33547;49.044;1.156;2023-01-24T07:13:28;1.80;99.90
47791;DHT22;33547;49.044;1.156;2023-01-24T07:15:54;1.70;99.90
47791;DHT22;33547;49.044;1.156;2023-01-24T07:18:20;1.80;99.90
47791;DHT22;33547;49.044;1.156;2023-01-24T07:20:46;1.70;99.90
47791;DHT22;33547;49.044;1.156;2023-01-24T07:23:23;1.70;99.90
47791;DHT22;33547;49.044;1.156;2023-01-24T07:25:52;1.80;99.90
47791;DHT22;33547;49.044;1.156;2023-01-24T07:28:18;1.70;99.90
47791;DHT22;33547;49.044;1.156;2023-01-24T07:30:44;1.80;99.90
47791;DHT22;33547;49.044;1.156;2023-01-24T07:33:12;1.70;99.90
47791;DHT22;33547;49.044;1.156;2023-01-24T07:35:38;1.80;99.90
47791;DHT22;33547;49.044;1.156;2023-01-24T07:38:04;1.70;99.90
47791;DHT22;33547;49.044;1.156;2023-01-24T07:45:22;1.80;99.90
47791;DHT22;33547;49.044;1.156;2023-01-24T07:47:48;1.80;99.90
47791;DHT22;33547;49.044;1.156;2023-01-24T07:50:14;1.90;99.90
47791;DHT22;33547;49.044;1.156;2023-01-24T07:52:39;1.90;99.90
47791;DHT22;33547;49.044;1.156;2023-01-24T07:55:05;2.00;99.90
47791;DHT22;33547;49.044;1.156;2023-01-24T07:57:31;1.80;99.90
47791;DHT22;33547;49.044;1.156;2023-01-24T07:59:56;1.80;99.90
47791;DHT22;33547;49.044;1.156;2023-01-24T08:02:22;1.80;99.90
47791;DHT22;33547;49.044;1.156;2023-01-24T08:04:48;1.70;99.90
47791;DHT22;33547;49.044;1.156;2023-01-24T08:07:13;1.80;99.90
47791;DHT22;33547;49.044;1.156;2023-01-24T08:09:42;1.80;99.90
47791;DHT22;33547;49.044;1.156;2023-01-24T08:12:08;1.90;99.90
47791;DHT22;33547;49.044;1.156;2023-01-24T08:14:34;1.80;99.90
47791;DHT22;33547;49.044;1.156;2023-01-24T08:16:59;1.90;99.90
47791;DHT22;33547;49.044;1.156;2023-01-24T08:19:25;2.00;99.90
47791;DHT22;33547;49.044;1.156;2023-01-24T08:21:50;1.90;99.90
47791;DHT22;33547;49.044;1.156;2023-01-24T08:24:16;1.90;99.90
47791;DHT22;33547;49.044;1.156;2023-01-24T08:26:42;1.90;99.90
47791;DHT22;33547;49.044;1.156;2023-01-24T08:29:11;1.80;99.90
47791;DHT22;33547;49.044;1.156;2023-01-24T08:31:37;1.80;99.90
47791;DHT22;33547;49.044;1.156;2023-01-24T08:34:03;1.80;99.90
47791;DHT22;33547;49.044;1.156;2023-01-24T08:36:29;1.80;99.90
47791;DHT22;33547;49.044;1.156;2023-01-24T08:38:54;1.80;99.90
47791;DHT22;33547;49.044;1.156;2023-01-24T08:41:20;1.80;99.90
47791;DHT22;33547;49.044;1.156;2023-01-24T08:43:45;1.80;99.90
47791;DHT22;33547;49.044;1.156;2023-01-24T08:46:11;1.80;99.90
47791;DHT22;33547;49.044;1.156;2023-01-24T08:48:37;1.90;99.90
47791;DHT22;33547;49.044;1.156;2023-01-24T08:51:04;1.90;99.90
47791;DHT22;33547;49.044;1.156;2023-01-24T08:53:30;1.90;99.90
47791;DHT22;33547;49.044;1.156;2023-01-24T08:55:56;1.90;99.90
47791;DHT22;33547;49.044;1.156;2023-01-24T08:58:22;2.00;99.90
47791;DHT22;33547;49.044;1.156;2023-01-24T09:00:47;2.00;99.90
47791;DHT22;33547;49.044;1.156;2023-01-24T09:03:16;2.00;99.90
47791;DHT22;33547;49.044;1.156;2023-01-24T09:05:42;2.00;99.90
47791;DHT22;33547;49.044;1.156;2023-01-24T09:08:08;2.00;99.90
47791;DHT22;33547;49.044;1.156;2023-01-24T09:10:34;1.90;99.90
47791;DHT22;33547;49.044;1.156;2023-01-24T09:13:03;1.90;99.90
47791;DHT22;33547;49.044;1.156;2023-01-24T09:15:29;1.90;99.90
47791;DHT22;33547;49.044;1.156;2023-01-24T09:17:55;1.90;99.90
47791;DHT22;33547;49.044;1.156;2023-01-24T09:20:21;2.00;99.90
47791;DHT22;33547;49.044;1.156;2023-01-24T09:22:47;2.10;99.90
47791;DHT22;33547;49.044;1.156;2023-01-24T09:25:13;2.10;99.90
47791;DHT22;33547;49.044;1.156;2023-01-24T09:27:39;2.00;99.90
47791;DHT22;33547;49.044;1.156;2023-01-24T09:30:08;2.10;99.90
47791;DHT22;33547;49.044;1.156;2023-01-24T09:32:35;2.10;99.90
47791;DHT22;33547;49.044;1.156;2023-01-24T09:35:01;2.10;99.90
47791;DHT22;33547;49.044;1.156;2023-01-24T09:37:27;2.00;99.90
47791;DHT22;33547;49.044;1.156;2023-01-24T09:39:52;2.10;99.90
47791;DHT22;33547;49.044;1.156;2023-01-24T09:42:36;2.10;99.90
47791;DHT22;33547;49.044;1.156;2023-01-24T09:45:19;2.10;99.90
47791;DHT22;33547;49.044;1.156;2023-01-24T09:47:56;2.20;99.90
47791;DHT22;33547;49.044;1.156;2023-01-24T09:52:55;2.20;99.90
47791;DHT22;33547;49.044;1.156;2023-01-24T09:55:29;2.40;99.90
47791;DHT22;33547;49.044;1.156;2023-01-24T09:57:58;2.30;99.90
47791;DHT22;33547;49.044;1.156;2023-01-24T10:00:31;2.30;99.90
47791;DHT22;33547;49.044;1.156;2023-01-24T10:03:00;2.30;99.90
47791;DHT22;33547;49.044;1.156;2023-01-24T10:05:37;2.30;99.90
47791;DHT22;33547;49.044;1.156;2023-01-24T10:24:52;2.30;99.90
47791;DHT22;33547;49.044;1.156;2023-01-24T10:27:29;2.30;99.90
47791;DHT22;33547;49.044;1.156;2023-01-24T10:29:59;2.40;99.90
47791;DHT22;33547;49.044;1.156;2023-01-24T10:32:32;2.50;99.90
47791;DHT22;33547;49.044;1.156;2023-01-24T10:35:09;2.50;99.90
47791;DHT22;33547;49.044;1.156;2023-01-24T10:37:38;2.50;99.90
47791;DHT22;33547;49.044;1.156;2023-01-24T10:40:15;2.50;99.90
47791;DHT22;33547;49.044;1.156;2023-01-24T10:42:41;2.60;99.90
47791;DHT22;33547;49.044;1.156;2023-01-24T10:50:47;2.50;99.90
47791;DHT22;33547;49.044;1.156;2023-01-24T10:55:47;2.60;99.90
47791;DHT22;33547;49.044;1.156;2023-01-24T10:58:22;2.50;99.90
47791;DHT22;33547;49.044;1.156;2023-01-24T11:00:56;2.40;99.90
47791;DHT22;33547;49.044;1.156;2023-01-24T11:03:26;2.40;99.90
47791;DHT22;33547;49.044;1.156;2023-01-24T11:05:54;2.40;99.90
47791;DHT22;33547;49.044;1.156;2023-01-24T11:08:21;2.40;99.90
47791;DHT22;33547;49.044;1.156;2023-01-24T11:10:57;2.40;99.90
47791;DHT22;33547;49.044;1.156;2023-01-24T11:16:03;2.50;99.90
47791;DHT22;33547;49.044;1.156;2023-01-24T11:18:31;2.70;99.90
47791;DHT22;33547;49.044;1.156;2023-01-24T11:21:14;2.70;99.90
47791;DHT22;33547;49.044;1.156;2023-01-24T11:23:40;2.70;99.90
47791;DHT22;33547;49.044;1.156;2023-01-24T11:26:23;2.60;99.90
47791;DHT22;33547;49.044;1.156;2023-01-24T11:29:01;2.70;99.90
47791;DHT22;33547;49.044;1.156;2023-01-24T11:37:06;2.60;99.90
47791;DHT22;33547;49.044;1.156;2023-01-24T11:45:26;2.60;99.90
47791;DHT22;33547;49.044;1.156;2023-01-24T11:48:06;2.50;99.90
47791;DHT22;33547;49.044;1.156;2023-01-24T11:50:35;2.70;99.90
47791;DHT22;33547;49.044;1.156;2023-01-24T12:09:14;2.40;99.90
47791;DHT22;33547;49.044;1.156;2023-01-24T12:17:20;2.50;99.90
47791;DHT22;33547;49.044;1.156;2023-01-24T12:21:08;2.50;99.90
47791;DHT22;33547;49.044;1.156;2023-01-24T12:23:28;2.40;99.90
47791;DHT22;33547;49.044;1.156;2023-01-24T12:26:07;2.60;99.90
47791;DHT22;33547;49.044;1.156;2023-01-24T12:28:42;2.50;99.90
47791;DHT22;33547;49.044;1.156;2023-01-24T12:31:13;2.60;99.90
47791;DHT22;33547;49.044;1.156;2023-01-24T12:33:50;2.60;99.90
47791;DHT22;33547;49.044;1.156;2023-01-24T12:37:00;2.50;99.90
47791;DHT22;33547;49.044;1.156;2023-01-24T12:39:34;2.40;99.90
47791;DHT22;33547;49.044;1.156;2023-01-24T12:42:05;2.40;99.90
47791;DHT22;33547;49.044;1.156;2023-01-24T12:44:47;2.40;99.90
47791;DHT22;33547;49.044;1.156;2023-01-24T12:47:35;2.30;99.90
47791;DHT22;33547;49.044;1.156;2023-01-24T12:53:18;2.50;99.90
47791;DHT22;33547;49.044;1.156;2023-01-24T12:58:41;2.60;99.90
47791;DHT22;33547;49.044;1.156;2023-01-24T13:04:48;2.50;99.90
47791;DHT22;33547;49.044;1.156;2023-01-24T13:12:24;2.60;99.90
47791;DHT22;33547;49.044;1.156;2023-01-24T13:15:10;2.70;99.90
47791;DHT22;33547;49.044;1.156;2023-01-24T13:23:19;2.60;99.90
47791;DHT22;33547;49.044;1.156;2023-01-24T13:31:31;2.60;99.90
47791;DHT22;33547;49.044;1.156;2023-01-24T13:34:02;2.60;99.90
47791;DHT22;33547;49.044;1.156;2023-01-24T13:36:35;2.70;99.90
47791;DHT22;33547;49.044;1.156;2023-01-24T13:39:03;2.70;99.90
47791;DHT22;33547;49.044;1.156;2023-01-24T13:44:24;2.80;99.90
47791;DHT22;33547;49.044;1.156;2023-01-24T13:54:57;2.70;99.90
47791;DHT22;33547;49.044;1.156;2023-01-24T14:08:02;2.80;99.90
47791;DHT22;33547;49.044;1.156;2023-01-24T14:12:59;2.80;99.90
47791;DHT22;33547;49.044;1.156;2023-01-24T14:15:37;2.80;99.90
47791;DHT22;33547;49.044;1.156;2023-01-24T14:21:16;2.70;99.90
47791;DHT22;33547;49.044;1.156;2023-01-24T14:23:46;2.70;99.90
47791;DHT22;33547;49.044;1.156;2023-01-24T14:26:15;2.70;99.90
47791;DHT22;33547;49.044;1.156;2023-01-24T14:28:44;2.70;99.90
47791;DHT22;33547;49.044;1.156;2023-01-24T14:31:25;2.70;99.90
47791;DHT22;33547;49.044;1.156;2023-01-24T14:34:25;2.70;99.90
47791;DHT22;33547;49.044;1.156;2023-01-24T14:37:02;2.80;99.90
47791;DHT22;33547;49.044;1.156;2023-01-24T14:39:28;2.70;99.90
47791;DHT22;33547;49.044;1.156;2023-01-24T14:42:02;2.70;99.90
47791;DHT22;33547;49.044;1.156;2023-01-24T14:44:30;2.70;99.90
47791;DHT22;33547;49.044;1.156;2023-01-24T14:46:59;2.70;99.90
47791;DHT22;33547;49.044;1.156;2023-01-24T14:49:35;2.70;99.90
47791;DHT22;33547;49.044;1.156;2023-01-24T14:52:02;2.70;99.90
47791;DHT22;33547;49.044;1.156;2023-01-24T14:54:28;2.70;99.90
47791;DHT22;33547;49.044;1.156;2023-01-24T14:56:54;2.80;99.90
47791;DHT22;33547;49.044;1.156;2023-01-24T14:59:20;2.80;99.90
47791;DHT22;33547;49.044;1.156;2023-01-24T15:01:51;2.80;99.90
47791;DHT22;33547;49.044;1.156;2023-01-24T15:04:25;2.80;99.90
47791;DHT22;33547;49.044;1.156;2023-01-24T15:07:14;2.90;99.90
47791;DHT22;33547;49.044;1.156;2023-01-24T15:09:41;2.80;99.90
47791;DHT22;33547;49.044;1.156;2023-01-24T15:14:55;2.70;99.90
47791;DHT22;33547;49.044;1.156;2023-01-24T15:17:25;2.60;99.90
47791;DHT22;33547;49.044;1.156;2023-01-24T15:20:15;2.70;99.90
47791;DHT22;33547;49.044;1.156;2023-01-24T15:22:39;2.70;99.90
47791;DHT22;33547;49.044;1.156;2023-01-24T15:25:25;2.70;99.90
47791;DHT22;33547;49.044;1.156;2023-01-24T15:27:52;2.70;99.90
47791;DHT22;33547;49.044;1.156;2023-01-24T15:30:26;2.70;99.90
47791;DHT22;33547;49.044;1.156;2023-01-24T15:43:32;2.70;99.90
47791;DHT22;33547;49.044;1.156;2023-01-24T15:46:35;2.70;99.90
47791;DHT22;33547;49.044;1.156;2023-01-24T15:49:25;2.60;99.90
47791;DHT22;33547;49.044;1.156;2023-01-24T15:54:29;2.60;99.90
47791;DHT22;33547;49.044;1.156;2023-01-24T15:56:58;2.60;99.90
47791;DHT22;33547;49.044;1.156;2023-01-24T15:59:25;2.70;99.90
47791;DHT22;33547;49.044;1.156;2023-01-24T16:01:50;2.60;99.90
47791;DHT22;33547;49.044;1.156;2023-01-24T16:04:21;2.60;99.90
47791;DHT22;33547;49.044;1.156;2023-01-24T16:06:48;2.60;99.90
47791;DHT22;33547;49.044;1.156;2023-01-24T16:09:14;2.50;99.90
47791;DHT22;33547;49.044;1.156;2023-01-24T16:11:44;2.50;99.90
47791;DHT22;33547;49.044;1.156;2023-01-24T16:14:18;2.40;99.90
47791;DHT22;33547;49.044;1.156;2023-01-24T16:16:46;2.40;99.90
47791;DHT22;33547;49.044;1.156;2023-01-24T16:19:16;2.50;99.90
47791;DHT22;33547;49.044;1.156;2023-01-24T16:21:43;2.50;99.90
47791;DHT22;33547;49.044;1.156;2023-01-24T16:24:09;2.50;99.90
47791;DHT22;33547;49.044;1.156;2023-01-24T16:26:34;2.60;99.90
47791;DHT22;33547;49.044;1.156;2023-01-24T16:29:00;2.60;99.90
47791;DHT22;33547;49.044;1.156;2023-01-24T16:31:26;2.60;99.90
47791;DHT22;33547;49.044;1.156;2023-01-24T16:33:51;2.60;99.90
47791;DHT22;33547;49.044;1.156;2023-01-24T16:36:17;2.70;99.90
47791;DHT22;33547;49.044;1.156;2023-01-24T16:38:43;2.60;99.90
47791;DHT22;33547;49.044;1.156;2023-01-24T16:41:11;2.70;99.90
47791;DHT22;33547;49.044;1.156;2023-01-24T16:43:38;2.60;99.90
47791;DHT22;33547;49.044;1.156;2023-01-24T16:46:16;2.50;99.90
47791;DHT22;33547;49.044;1.156;2023-01-24T16:48:42;2.60;99.90
47791;DHT22;33547;49.044;1.156;2023-01-24T16:51:09;2.60;99.90
47791;DHT22;33547;49.044;1.156;2023-01-24T16:53:35;2.70;99.90
47791;DHT22;33547;49.044;1.156;2023-01-24T16:56:01;2.60;99.90
47791;DHT22;33547;49.044;1.156;2023-01-24T16:58:26;2.70;99.90
47791;DHT22;33547;49.044;1.156;2023-01-24T17:00:52;2.70;99.90
47791;DHT22;33547;49.044;1.156;2023-01-24T17:03:18;2.60;99.90
47791;DHT22;33547;49.044;1.156;2023-01-24T17:05:43;2.60;99.90
47791;DHT22;33547;49.044;1.156;2023-01-24T17:08:10;2.60;99.90
47791;DHT22;33547;49.044;1.156;2023-01-24T17:10:37;2.60;99.90
47791;DHT22;33547;49.044;1.156;2023-01-24T17:13:02;2.70;99.90
47791;DHT22;33547;49.044;1.156;2023-01-24T17:15:31;2.80;99.90
47791;DHT22;33547;49.044;1.156;2023-01-24T17:17:56;2.70;99.90
47791;DHT22;33547;49.044;1.156;2023-01-24T17:20:22;2.80;99.90
47791;DHT22;33547;49.044;1.156;2023-01-24T17:22:47;2.80;99.90
47791;DHT22;33547;49.044;1.156;2023-01-24T17:25:13;2.80;99.90
47791;DHT22;33547;49.044;1.156;2023-01-24T17:27:39;2.60;99.90
47791;DHT22;33547;49.044;1.156;2023-01-24T17:30:05;2.60;99.90
47791;DHT22;33547;49.044;1.156;2023-01-24T17:32:34;2.50;99.90
47791;DHT22;33547;49.044;1.156;2023-01-24T17:35:03;2.60;99.90
47791;DHT22;33547;49.044;1.156;2023-01-24T17:37:30;2.60;99.90
47791;DHT22;33547;49.044;1.156;2023-01-24T17:39:55;2.60;99.90
47791;DHT22;33547;49.044;1.156;2023-01-24T17:42:21;2.50;99.90
47791;DHT22;33547;49.044;1.156;2023-01-24T17:44:47;2.50;99.90
47791;DHT22;33547;49.044;1.156;2023-01-24T17:47:12;2.50;99.90
47791;DHT22;33547;49.044;1.156;2023-01-24T17:49:38;2.60;99.90
47791;DHT22;33547;49.044;1.156;2023-01-24T17:52:04;2.60;99.90
47791;DHT22;33547;49.044;1.156;2023-01-24T17:54:29;2.70;99.90
47791;DHT22;33547;49.044;1.156;2023-01-24T17:56:55;2.60;99.90
47791;DHT22;33547;49.044;1.156;2023-01-24T17:59:21;2.60;99.90
47791;DHT22;33547;49.044;1.156;2023-01-24T18:01:47;2.70;99.90
47791;DHT22;33547;49.044;1.156;2023-01-24T18:04:12;2.70;99.90
47791;DHT22;33547;49.044;1.156;2023-01-24T18:06:38;2.70;99.90
47791;DHT22;33547;49.044;1.156;2023-01-24T18:09:04;2.70;99.90
47791;DHT22;33547;49.044;1.156;2023-01-24T18:11:29;2.80;99.90
47791;DHT22;33547;49.044;1.156;2023-01-24T18:13:56;2.70;99.90
47791;DHT22;33547;49.044;1.156;2023-01-24T18:16:21;2.60;99.90
47791;DHT22;33547;49.044;1.156;2023-01-24T18:18:48;2.60;99.90
47791;DHT22;33547;49.044;1.156;2023-01-24T18:21:19;2.60;99.90
47791;DHT22;33547;49.044;1.156;2023-01-24T18:23:53;2.60;99.90
47791;DHT22;33547;49.044;1.156;2023-01-24T18:26:20;2.60;99.90
47791;DHT22;33547;49.044;1.156;2023-01-24T18:28:45;2.60;99.90
47791;DHT22;33547;49.044;1.156;2023-01-24T18:31:12;2.60;99.90
47791;DHT22;33547;49.044;1.156;2023-01-24T18:33:38;2.50;99.90
47791;DHT22;33547;49.044;1.156;2023-01-24T18:36:12;2.50;99.90